Tutti
Baia Mare Airport (Baia Mare) BAY Meteo
|
Baia Mare (BAY / LRBM)
Cielo sereno
Venti calmi |
|
27 °C |
Previsione area Terminal BAY
| Date | Time (EEST) | Flight Rules | Wind Dir. | Speed | Type | Height AGL (ft) | Visibility | Remarks | ||||||
|---|---|---|---|---|---|---|---|---|---|---|---|---|---|---|
Storico METAR BAY recente
| Date | Time (EEST) | Flight Rules | Wind Dir. | Speed | Type | Height AGL (ft) | Visibility | Temp (°C) | Temp (°F) | Dew Point (°C) | Dew Point (°F) | Rel. Humid. | Pressure | Density Altitude | Remarks |
|---|---|---|---|---|---|---|---|---|---|---|---|---|---|---|---|
| 05-set | 11:30 | VFR | Variable | 3 kt | 10000 meters | 27° | 80° | 13° | 55° | 42% | 1015 mb | 1.991 ft | |||
| 05-set | 11:00 | VFR | Variable | 3 kt | 10000 meters | 27° | 80° | 13° | 55° | 42% | 1015 mb | 1.991 ft | |||
| 05-set | 10:30 | VFR | 120° | 6 kt | 10000 meters | 26° | 78° | 12° | 53° | 42% | 1015 mb | 1.871 ft | |||
| 05-set | 10:00 | VFR | 110° | 6 kt | 10000 meters | 25° | 77° | 14° | 57° | 50% | 1015 mb | 1.751 ft | |||
| 05-set | 09:30 | VFR | 100° | 8 kt | 10000 meters | 23° | 73° | 13° | 55° | 53% | 1015 mb | 1.511 ft | |||
| 05-set | 09:00 | VFR | 80° | 6 kt | 10000 meters | 22° | 71° | 13° | 55° | 57% | 1015 mb | 1.391 ft | |||
| 05-set | 08:30 | VFR | 80° | 5 kt | 10000 meters | 21° | 69° | 13° | 55° | 60% | 1015 mb | 1.271 ft | |||
| 05-set | 08:00 | VFR | 80° | 5 kt | 10000 meters | 19° | 66° | 12° | 53° | 64% | 1015 mb | 1.031 ft | |||
| 05-set | 07:30 | VFR | 70° | 6 kt | 10000 meters | 17° | 62° | 12° | 53° | 72% | 1015 mb | 791 ft | |||
| 05-set | 07:00 | VFR | 80° | 7 kt | 10000 meters | 17° | 62° | 12° | 53° | 72% | 1015 mb | 791 ft | |||
| 05-set | 06:30 | VFR | 80° | 7 kt | 10000 meters | 17° | 62° | 12° | 53° | 72% | 1015 mb | 791 ft | |||
| 05-set | 06:00 | VFR | 90° | 7 kt | 10000 meters | 17° | 62° | 12° | 53° | 72% | 1015 mb | 791 ft | |||
| 05-set | 05:30 | VFR | 90° | 8 kt | 10000 meters | 16° | 60° | 12° | 53° | 77% | 1015 mb | 671 ft | |||
| 05-set | 05:00 | VFR | 80° | 8 kt | 10000 meters | 17° | 62° | 12° | 53° | 72% | 1015 mb | 791 ft | |||
| 05-set | 04:30 | VFR | 80° | 5 kt | 10000 meters | 17° | 62° | 12° | 53° | 72% | 1015 mb | 791 ft | |||
| 05-set | 04:00 | VFR | Variable | 2 kt | 10000 meters | 17° | 62° | 12° | 53° | 72% | 1015 mb | 791 ft | |||
| 05-set | 03:30 | VFR | Variable | 2 kt | 10000 meters | 16° | 60° | 12° | 53° | 77% | 1015 mb | 671 ft | |||
| 05-set | 03:00 | VFR | Variable | 2 kt | 10000 meters | 17° | 62° | 12° | 53° | 72% | 1016 mb | 762 ft | |||
| 05-set | 02:30 | VFR | Calm | 10000 meters | 17° | 62° | 12° | 53° | 72% | 1016 mb | 762 ft | ||||
| 05-set | 02:00 | VFR | Variable | 2 kt | 10000 meters | 17° | 62° | 12° | 53° | 72% | 1016 mb | 762 ft | |||
| 05-set | 01:30 | VFR | Variable | 2 kt | 10000 meters | 18° | 64° | 12° | 53° | 68% | 1016 mb | 882 ft | |||
| 05-set | 01:00 | VFR | 40° | 3 kt | 10000 meters | 17° | 62° | 11° | 51° | 68% | 1016 mb | 762 ft | |||
| 05-set | 00:30 | VFR | 40° | 3 kt | 10000 meters | 18° | 64° | 12° | 53° | 68% | 1016 mb | 882 ft | |||
| 05-set | 00:00 | VFR | 30° | 3 kt | 10000 meters | 19° | 66° | 11° | 51° | 60% | 1016 mb | 1.002 ft |
Accedi
| Il tuo browser non è supportato. fai l'upgrade del tuo browser |
